Аэропорт: Усть-Каменогорск. Усть-Каменогорск

ICAO: UASK

METAR:
2020-10-19 15:00:00
UASK 191500Z 10001MPS 9999 NSC M01/M02 Q1032 R12/090060 NOSIG RMK QFE749/0998
METAR:
Информация по данной станции не доступна